createdAt,value
2023-02-25T00:04:22.216Z,96.40
2023-02-25T00:09:24.136Z,96.30
2023-02-25T00:14:26.126Z,96.30
2023-02-25T00:19:28.045Z,96.20
2023-02-25T00:24:29.892Z,96.20
2023-02-25T00:29:31.933Z,96.20
2023-02-25T00:34:33.870Z,96.20
2023-02-25T00:39:44.795Z,96.60
2023-02-25T00:44:49.217Z,96.70
2023-02-25T00:49:52.415Z,96.60
2023-02-25T00:54:54.404Z,96.60
2023-02-25T00:59:56.356Z,96.60
2023-02-25T01:04:58.224Z,96.50
2023-02-25T01:10:00.306Z,96.50
2023-02-25T01:15:02.420Z,96.60
2023-02-25T01:20:11.134Z,96.10
2023-02-25T01:25:15.788Z,96.30
2023-02-25T01:30:20.242Z,96.20
2023-02-25T01:35:22.136Z,96.20
2023-02-25T01:40:26.237Z,96.10
2023-02-25T01:45:31.995Z,96.10
2023-02-25T01:50:48.844Z,96.10
2023-02-25T01:55:51.596Z,96.40
2023-02-25T02:00:55.658Z,96.10
2023-02-25T02:06:10.045Z,96.20
2023-02-25T02:11:12.038Z,96.10
2023-02-25T02:16:50.756Z,96.00
2023-02-25T02:22:01.043Z,96.00
2023-02-25T02:27:30.786Z,96.00
2023-02-25T02:32:47.221Z,96.10
2023-02-25T02:38:14.523Z,96.20
2023-02-25T02:43:37.895Z,96.10
2023-02-25T02:49:06.336Z,96.20
2023-02-25T02:54:10.953Z,96.30
2023-02-25T02:59:27.691Z,96.30
2023-02-25T03:04:33.968Z,96.30
2023-02-25T03:09:47.335Z,96.30
2023-02-25T03:14:49.455Z,96.30
2023-02-25T03:20:07.446Z,96.30
2023-02-25T03:25:23.592Z,96.30
2023-02-25T03:30:51.281Z,96.20
2023-02-25T03:35:56.308Z,96.10
2023-02-25T03:41:01.610Z,96.20
2023-02-25T03:46:05.101Z,96.20
2023-02-25T03:51:07.431Z,96.20
2023-02-25T03:56:12.306Z,96.10
2023-02-25T04:01:25.045Z,96.20
2023-02-25T04:06:26.959Z,96.20
2023-02-25T04:11:29.063Z,96.20
2023-02-25T04:16:31.470Z,96.20
2023-02-25T04:21:36.842Z,96.30
2023-02-25T04:26:38.670Z,96.30
2023-02-25T04:31:40.758Z,96.30
2023-02-25T04:36:44.404Z,96.20
2023-02-25T04:41:46.358Z,96.00
2023-02-25T04:46:52.012Z,96.10
2023-02-25T04:51:54.088Z,96.10
2023-02-25T04:56:56.355Z,96.10
2023-02-25T05:01:58.233Z,96.10
2023-02-25T05:07:00.612Z,96.10
2023-02-25T05:12:04.416Z,96.20
2023-02-25T05:17:15.898Z,96.10
2023-02-25T05:22:23.787Z,96.00
2023-02-25T05:27:31.403Z,96.10
2023-02-25T05:32:33.641Z,96.10
2023-02-25T05:42:52.427Z,96.00
2023-02-25T05:47:54.486Z,95.90
2023-02-25T05:52:58.124Z,96.30
2023-02-25T05:58:00.232Z,96.30
2023-02-25T06:03:02.281Z,96.30
2023-02-25T06:08:04.300Z,96.30
2023-02-25T06:13:08.466Z,96.30
2023-02-25T06:18:10.460Z,96.30
2023-02-25T06:23:12.635Z,96.20
2023-02-25T06:28:14.603Z,96.20
2023-02-25T06:33:16.811Z,96.20
2023-02-25T06:38:19.824Z,96.20
2023-02-25T06:43:22.212Z,96.30
2023-02-25T06:48:24.369Z,96.30
2023-02-25T06:53:26.750Z,96.30
2023-02-25T06:58:29.773Z,96.30
2023-02-25T07:03:31.894Z,96.30
2023-02-25T07:08:36.766Z,96.70
2023-02-25T07:13:41.476Z,96.40
2023-02-25T07:18:44.446Z,96.40
2023-02-25T07:23:46.609Z,96.40
2023-02-25T07:28:50.998Z,96.00
2023-02-25T07:33:55.491Z,96.00
2023-02-25T07:39:00.917Z,96.50
2023-02-25T07:44:06.664Z,96.50
2023-02-25T07:49:29.565Z,96.50
2023-02-25T07:54:33.163Z,96.50
2023-02-25T07:59:36.144Z,96.50
2023-02-25T08:04:48.964Z,96.50
2023-02-25T08:09:53.114Z,96.10
2023-02-25T08:14:56.201Z,96.00
2023-02-25T08:20:05.985Z,95.90
2023-02-25T08:25:15.012Z,95.90
2023-02-25T08:30:25.798Z,96.00
2023-02-25T08:35:33.712Z,96.00
2023-02-25T08:40:36.659Z,96.50
2023-02-25T08:45:42.324Z,96.10
2023-02-25T08:50:46.401Z,96.50
2023-02-25T09:02:00.626Z,96.40
2023-02-25T14:54:36.785Z,94.00
2023-02-25T15:00:10.964Z,94.00
2023-02-25T15:05:51.645Z,93.80
2023-02-25T15:11:17.791Z,93.80
2023-02-25T15:16:42.750Z,93.80
2023-02-25T15:21:58.242Z,93.80
2023-02-25T15:27:36.206Z,93.70
2023-02-25T15:32:53.036Z,93.50
2023-02-25T15:37:54.779Z,93.50
2023-02-25T15:42:58.312Z,93.50
2023-02-25T15:48:17.600Z,93.30
2023-02-25T15:53:23.484Z,93.20
2023-02-25T15:58:25.322Z,93.10
2023-02-25T16:03:36.008Z,93.10
2023-02-25T16:08:49.762Z,93.00
2023-02-25T16:13:53.021Z,92.90
2023-02-25T16:18:57.822Z,93.00
2023-02-25T16:24:00.856Z,93.00
2023-02-25T16:29:11.791Z,92.90
2023-02-25T16:34:32.690Z,93.00
2023-02-25T16:39:35.456Z,92.90
2023-02-25T16:44:39.105Z,92.90
2023-02-25T16:49:46.091Z,92.80
2023-02-25T16:54:57.622Z,92.80
2023-02-25T17:00:19.754Z,92.80
2023-02-25T17:05:27.519Z,92.70
2023-02-25T17:10:53.102Z,92.70
2023-02-25T17:15:55.887Z,92.70
2023-02-25T17:21:08.096Z,92.70
2023-02-25T17:26:17.469Z,92.60
2023-02-25T17:31:26.558Z,92.60
2023-02-25T17:36:35.348Z,92.60
2023-02-25T17:41:37.380Z,92.60
2023-02-25T17:46:44.567Z,92.60
2023-02-25T17:51:51.395Z,92.50
2023-02-25T17:57:06.061Z,92.50
2023-02-25T18:02:30.854Z,92.40
2023-02-25T18:07:33.254Z,92.40
2023-02-25T18:12:38.353Z,92.40
2023-02-25T18:17:41.825Z,92.40
2023-02-25T18:22:48.294Z,92.40
2023-02-25T18:27:53.678Z,92.40
2023-02-25T18:32:59.203Z,92.40
2023-02-25T18:38:02.468Z,92.40
2023-02-25T18:43:05.095Z,92.40
2023-02-25T18:48:06.953Z,92.30
2023-02-25T18:53:21.316Z,92.30
2023-02-25T18:58:24.873Z,92.10
2023-02-25T19:03:39.120Z,92.10
2023-02-25T19:08:41.036Z,92.00
2023-02-25T19:13:43.096Z,91.80
2023-02-25T19:18:47.292Z,91.90
2023-02-25T19:23:53.619Z,91.90
2023-02-25T19:28:55.470Z,91.90
2023-02-25T19:33:57.353Z,91.70
2023-02-25T19:38:59.334Z,91.80
2023-02-25T19:44:01.150Z,91.70
2023-02-25T19:49:03.034Z,91.60
2023-02-25T19:54:05.034Z,91.50
2023-02-25T19:59:08.425Z,91.40
2023-02-25T20:04:11.040Z,91.40
2023-02-25T20:09:12.885Z,91.30
2023-02-25T20:14:15.002Z,91.20
2023-02-25T20:19:16.959Z,91.10
2023-02-25T20:24:18.867Z,91.10
2023-02-25T20:29:21.471Z,90.90
2023-02-25T20:34:26.264Z,90.90
2023-02-25T20:39:31.137Z,90.80
2023-02-25T20:44:33.230Z,90.70
2023-02-25T20:49:36.419Z,90.70
2023-02-25T20:54:38.253Z,90.70
2023-02-25T20:59:40.429Z,90.70
2023-02-25T21:04:42.771Z,90.60
2023-02-25T21:09:44.733Z,90.60
2023-02-25T21:14:46.616Z,90.60
2023-02-25T21:19:48.963Z,90.60
2023-02-25T21:24:50.801Z,90.60
2023-02-25T21:29:52.678Z,90.50
2023-02-25T21:34:54.667Z,90.50
2023-02-25T21:39:56.595Z,90.40
2023-02-25T21:44:58.459Z,90.20
2023-02-25T21:50:00.484Z,90.10
2023-02-25T21:55:02.406Z,90.10
2023-02-25T22:00:07.413Z,90.10
2023-02-25T22:05:13.990Z,90.20
2023-02-25T22:10:16.155Z,90.10
2023-02-25T22:15:18.108Z,90.10
2023-02-25T22:20:20.059Z,90.20
2023-02-25T22:25:23.186Z,90.30
2023-02-25T22:30:25.165Z,90.30
2023-02-25T22:35:27.063Z,90.40
2023-02-25T22:40:29.026Z,90.40
2023-02-25T22:45:30.978Z,90.50
2023-02-25T22:50:32.807Z,90.50
2023-02-25T22:55:34.874Z,90.60
2023-02-25T23:00:43.388Z,90.70
2023-02-25T23:05:45.574Z,90.70
2023-02-25T23:10:47.833Z,90.70
2023-02-25T23:15:50.211Z,90.70
2023-02-25T23:20:53.616Z,90.80
2023-02-25T23:25:55.466Z,90.80
2023-02-25T23:30:57.415Z,90.90
2023-02-25T23:36:01.197Z,91.00
2023-02-25T23:41:03.126Z,91.00
2023-02-25T23:46:06.127Z,91.00
2023-02-25T23:51:08.773Z,91.10
2023-02-25T23:56:13.106Z,91.10
